createdAt,value
2018-11-21T00:03:09.735Z,39.37
2018-11-21T00:08:29.850Z,33.73
2018-11-21T00:13:49.319Z,41.00
2018-11-21T00:19:09.314Z,34.93
2018-11-21T00:24:28.920Z,35.50
2018-11-21T00:29:48.839Z,37.10
2018-11-21T00:35:10.561Z,33.93
2018-11-21T00:40:29.616Z,40.67
2018-11-21T00:45:48.635Z,39.60
2018-11-21T00:51:07.592Z,34.93
2018-11-21T00:56:26.812Z,37.93
2018-11-21T01:01:46.257Z,37.33
2018-11-21T01:07:05.463Z,44.63
2018-11-21T01:12:25.907Z,40.30
2018-11-21T01:17:45.769Z,41.07
2018-11-21T01:23:05.377Z,39.10
2018-11-21T01:28:24.801Z,32.88
2018-11-21T01:33:44.097Z,38.37
2018-11-21T01:39:05.018Z,37.03
2018-11-21T01:44:23.952Z,37.57
2018-11-21T01:49:43.300Z,41.83
2018-11-21T01:55:03.136Z,34.03
2018-11-21T02:00:23.017Z,38.23
2018-11-21T02:05:42.737Z,40.40
2018-11-21T02:11:02.512Z,35.07
2018-11-21T02:16:22.271Z,39.30
2018-11-21T02:21:41.810Z,37.27
2018-11-21T02:27:01.637Z,36.47
2018-11-21T02:32:20.786Z,39.63
2018-11-21T02:37:40.796Z,35.87
2018-11-21T02:43:00.357Z,37.00
2018-11-21T02:48:19.782Z,38.60
2018-11-21T02:53:39.026Z,39.70
2018-11-21T02:58:58.331Z,39.07
2018-11-21T03:04:17.900Z,36.03
2018-11-21T03:09:37.415Z,39.23
2018-11-21T03:14:56.890Z,36.87
2018-11-21T03:20:15.836Z,34.20
2018-11-21T03:25:35.461Z,34.77
2018-11-21T03:30:55.042Z,38.67
2018-11-21T03:36:14.708Z,44.00
2018-11-21T03:41:34.384Z,39.00
2018-11-21T03:46:53.650Z,40.55
2018-11-21T03:52:12.911Z,41.20
2018-11-21T03:57:32.377Z,37.13
2018-11-21T04:02:51.112Z,41.33
2018-11-21T04:08:10.341Z,36.87
2018-11-21T04:13:29.537Z,44.10
2018-11-21T04:18:52.345Z,40.08
2018-11-21T04:24:11.782Z,43.70
2018-11-21T04:29:31.648Z,38.23
2018-11-21T04:34:51.125Z,40.47
2018-11-21T04:40:10.729Z,36.07
2018-11-21T04:45:29.777Z,44.13
2018-11-21T04:50:49.055Z,40.37
2018-11-21T04:56:07.767Z,42.00
2018-11-21T05:01:28.884Z,42.63
2018-11-21T05:06:47.899Z,46.50
2018-11-21T05:12:07.796Z,40.17
2018-11-21T05:17:28.237Z,46.07
2018-11-21T05:22:47.712Z,48.47
2018-11-21T05:28:07.790Z,43.30
2018-11-21T05:33:27.710Z,49.47
2018-11-21T05:38:46.957Z,43.00
2018-11-21T05:44:06.375Z,39.57
2018-11-21T05:49:25.437Z,46.03
2018-11-21T05:54:44.610Z,46.17
2018-11-21T06:00:05.093Z,45.23
2018-11-21T06:05:24.190Z,43.83
2018-11-21T06:10:43.630Z,40.00
2018-11-21T06:16:03.524Z,44.20
2018-11-21T06:21:22.866Z,34.77
2018-11-21T06:26:42.760Z,39.70
2018-11-21T06:32:01.434Z,43.80
2018-11-21T06:37:20.644Z,48.00
2018-11-21T06:42:41.280Z,41.80
2018-11-21T06:48:00.409Z,45.40
2018-11-21T06:53:21.062Z,37.28
2018-11-21T06:58:41.794Z,43.97
2018-11-21T07:04:02.380Z,36.13
2018-11-21T07:09:22.583Z,44.40
2018-11-21T07:14:43.645Z,50.23
2018-11-21T07:20:02.697Z,51.68
2018-11-21T07:25:24.285Z,55.33
2018-11-21T07:30:43.604Z,41.13
2018-11-21T07:36:04.501Z,54.53
2018-11-21T07:41:24.599Z,41.90
2018-11-21T07:46:45.198Z,41.27
2018-11-21T07:52:04.957Z,46.47
2018-11-21T07:57:33.395Z,43.97
2018-11-21T08:02:53.305Z,44.73
2018-11-21T08:08:49.149Z,47.17
2018-11-21T08:14:31.135Z,49.67
2018-11-21T08:20:08.579Z,48.03
2018-11-21T08:25:37.905Z,49.73
2018-11-21T08:30:57.236Z,53.30
2018-11-21T08:36:17.760Z,45.50
2018-11-21T08:41:37.179Z,50.43
2018-11-21T08:46:56.945Z,54.93
2018-11-21T08:52:16.307Z,55.53
2018-11-21T08:57:37.645Z,52.73
2018-11-21T09:02:57.254Z,57.25
2018-11-21T09:08:17.031Z,50.33
2018-11-21T09:13:36.604Z,51.00
2018-11-21T09:18:57.180Z,57.37
2018-11-21T09:24:18.697Z,57.83
2018-11-21T09:29:40.116Z,53.13
2018-11-21T09:35:03.015Z,60.80
2018-11-21T09:40:24.259Z,62.80
2018-11-21T09:45:45.667Z,48.30
2018-11-21T09:51:06.611Z,58.57
2018-11-21T09:56:28.214Z,60.23
2018-11-21T10:02:23.915Z,53.30
2018-11-21T10:08:11.227Z,54.57
2018-11-21T10:13:33.202Z,49.17
2018-11-21T10:18:55.998Z,53.53
2018-11-21T10:24:15.897Z,58.20
2018-11-21T10:29:36.299Z,49.37
2018-11-21T10:34:56.027Z,56.13
2018-11-21T10:40:16.144Z,48.33
2018-11-21T10:45:36.017Z,49.93
2018-11-21T10:50:56.030Z,50.00
2018-11-21T10:56:15.096Z,50.23
2018-11-21T11:01:52.056Z,53.93
2018-11-21T11:07:39.643Z,48.27
2018-11-21T11:13:13.579Z,48.03
2018-11-21T11:18:58.453Z,48.17
2018-11-21T11:24:45.387Z,50.03
2018-11-21T11:30:24.980Z,48.70
2018-11-21T11:36:15.093Z,46.60
2018-11-21T11:41:51.539Z,38.93
2018-11-21T11:47:28.349Z,40.63
2018-11-21T11:53:18.676Z,45.50
2018-11-21T11:58:56.296Z,35.27
2018-11-21T12:04:27.756Z,36.13
2018-11-21T12:10:05.098Z,34.97
2018-11-21T12:15:41.458Z,35.92
2018-11-21T12:21:18.501Z,35.53
2018-11-21T12:26:56.372Z,33.00
2018-11-21T12:32:33.438Z,32.10
2018-11-21T12:38:17.201Z,33.47
2018-11-21T12:43:54.261Z,32.70
2018-11-21T12:49:30.958Z,33.10
2018-11-21T12:55:04.368Z,34.03
2018-11-21T13:00:51.384Z,29.23
2018-11-21T13:06:32.214Z,31.93
2018-11-21T13:12:09.127Z,33.73
2018-11-21T13:17:59.179Z,28.37
2018-11-21T13:23:49.819Z,32.40
2018-11-21T13:29:43.328Z,28.20
2018-11-21T13:35:30.197Z,36.50
2018-11-21T13:41:02.834Z,31.47
2018-11-21T13:46:41.260Z,29.63
2018-11-21T13:52:24.749Z,28.13
2018-11-21T13:57:43.964Z,30.47
2018-11-21T14:03:03.570Z,34.27
2018-11-21T14:08:22.759Z,33.38
2018-11-21T14:13:41.845Z,33.57
2018-11-21T14:19:01.739Z,33.27
2018-11-21T14:24:20.988Z,29.97
2018-11-21T14:29:39.737Z,34.83
2018-11-21T14:34:58.921Z,42.83
2018-11-21T14:40:21.413Z,41.08
2018-11-21T14:45:40.120Z,37.93
2018-11-21T14:50:59.659Z,38.20
2018-11-21T14:56:18.744Z,40.93
2018-11-21T15:01:37.882Z,43.20
2018-11-21T15:06:58.233Z,39.53
2018-11-21T15:12:17.201Z,43.00
2018-11-21T15:17:36.449Z,39.47
2018-11-21T15:22:55.129Z,40.63
2018-11-21T15:28:14.310Z,36.70
2018-11-21T15:33:36.154Z,43.07
2018-11-21T15:38:58.554Z,39.27
2018-11-21T15:44:17.766Z,36.05
2018-11-21T15:49:37.729Z,35.13
2018-11-21T15:54:57.281Z,37.87
2018-11-21T16:00:22.384Z,36.53
2018-11-21T16:05:41.789Z,39.50
2018-11-21T16:11:01.208Z,35.57
2018-11-21T16:16:20.540Z,35.15
2018-11-21T16:21:40.067Z,37.00
2018-11-21T16:26:59.219Z,40.17
2018-11-21T16:32:18.910Z,37.87
2018-11-21T16:37:39.173Z,37.23
2018-11-21T16:43:00.504Z,33.70
2018-11-21T16:48:19.689Z,36.73
2018-11-21T16:53:38.570Z,43.30
2018-11-21T16:58:57.970Z,39.73
2018-11-21T17:04:17.444Z,37.77
2018-11-21T17:09:44.185Z,38.23
2018-11-21T17:15:03.170Z,37.87
2018-11-21T17:20:24.481Z,39.73
2018-11-21T17:25:44.138Z,41.53
2018-11-21T17:31:03.639Z,37.43
2018-11-21T17:36:22.463Z,38.63
2018-11-21T17:41:41.683Z,43.15
2018-11-21T17:47:01.107Z,40.63
2018-11-21T17:52:21.096Z,40.43
2018-11-21T17:57:40.684Z,40.90
2018-11-21T18:02:59.482Z,42.23
2018-11-21T18:08:19.412Z,46.10
2018-11-21T18:13:39.295Z,42.20
2018-11-21T18:18:58.056Z,39.17
2018-11-21T18:24:17.261Z,46.17
2018-11-21T18:29:37.130Z,42.43
2018-11-21T18:34:56.905Z,39.57
2018-11-21T18:40:20.108Z,40.35
2018-11-21T18:45:41.999Z,38.17
2018-11-21T18:51:01.025Z,43.63
2018-11-21T18:56:32.215Z,41.43
2018-11-21T19:01:51.628Z,38.93
2018-11-21T19:07:14.515Z,41.40
2018-11-21T19:12:33.686Z,52.60
2018-11-21T19:17:52.613Z,38.27
2018-11-21T19:23:12.532Z,35.00
2018-11-21T19:28:31.757Z,45.45
2018-11-21T19:33:51.364Z,38.50
2018-11-21T19:39:13.212Z,38.10
2018-11-21T19:44:32.705Z,38.03
2018-11-21T19:49:51.999Z,35.63
2018-11-21T19:55:14.329Z,37.75
2018-11-21T20:00:34.276Z,37.80
